Wetterdaten: Woche 06.06.16 - 12.06.16 (KW23)
Datum Zeit Temp. Aussen Temp. o. S. +5cm Feuchte Auss BlattFeu 1 Luftdruck Regen Sonnenschein Regendauer Solar Windben Empfang
06.06.2016 00:00 17,9 C 17,1 C 16,2 C 96 % 15 lf 1018,3 hPa 0,0 l/m 0,00 h 0,03 h 0 W/m 3,5 km/h (1 Bft) 97,22 %
06.06.2016 01:00 17,6 C 16,7 C 15,7 C 96 % 15 lf 1018,4 hPa 0,2 l/m 0,00 h 0,00 h 0 W/m 3,9 km/h (1 Bft) 94,36 %
06.06.2016 02:00 17,2 C 16,0 C 15,1 C 96 % 15 lf 1018,6 hPa 0,0 l/m 0,00 h 0,00 h 0 W/m 3,4 km/h (1 Bft) 98,28 %
06.06.2016 03:00 16,7 C 15,6 C 14,4 C 96 % 15 lf 1018,6 hPa 0,0 l/m 0,00 h 0,00 h 0 W/m 4,1 km/h (1 Bft) 96,49 %
06.06.2016 04:00 16,3 C 15,4 C 14,3 C 97 % 15 lf 1018,5 hPa 0,0 l/m 0,00 h 0,00 h 0 W/m 5,9 km/h (2 Bft) 94,70 %
06.06.2016 05:00 15,9 C 15,0 C 14,0 C 97 % 15 lf 1018,7 hPa 0,0 l/m 0,13 h 0,00 h 15 W/m 8,1 km/h (2 Bft) 96,61 %
06.06.2016 06:00 15,7 C 15,3 C 14,2 C 98 % 15 lf 1019,0 hPa 0,0 l/m 0,73 h 0,00 h 80 W/m 8,3 km/h (2 Bft) 97,57 %
06.06.2016 07:00 16,1 C 16,1 C 15,0 C 98 % 14 lf 1019,2 hPa 0,0 l/m 1,00 h 0,00 h 205 W/m 10,0 km/h (2 Bft) 94,74 %
06.06.2016 08:00 17,0 C 20,2 C 16,6 C 98 % 1 lf 1019,3 hPa 0,0 l/m 1,00 h 0,00 h 373 W/m 10,0 km/h (2 Bft) 96,73 %
06.06.2016 09:00 19,0 C 28,6 C 18,9 C 96 % 0 lf 1019,5 hPa 0,0 l/m 1,00 h 0,00 h 541 W/m 9,6 km/h (2 Bft) 96,08 %
06.06.2016 10:00 21,5 C 31,5 C 26,7 C 86 % 0 lf 1019,6 hPa 0,0 l/m 1,00 h 0,00 h 684 W/m 11,9 km/h (2 Bft) 96,73 %
06.06.2016 11:00 23,0 C 32,9 C 27,9 C 81 % 0 lf 1019,8 hPa 0,0 l/m 1,00 h 0,00 h 785 W/m 12,9 km/h (3 Bft) 96,32 %
06.06.2016 12:00 24,4 C 34,2 C 30,1 C 77 % 0 lf 1019,7 hPa 0,0 l/m 0,93 h 0,00 h 822 W/m 14,0 km/h (3 Bft) 95,00 %
06.06.2016 13:00 25,2 C 34,1 C 26,7 C 71 % 0 lf 1019,5 hPa 0,0 l/m 1,00 h 0,00 h 897 W/m 16,6 km/h (3 Bft) 95,65 %
06.06.2016 14:00 26,0 C 34,0 C 31,1 C 69 % 0 lf 1019,1 hPa 0,0 l/m 1,00 h 0,00 h 891 W/m 18,5 km/h (3 Bft) 98,44 %
06.06.2016 15:00 26,8 C 33,8 C 33,5 C 65 % 0 lf 1019,1 hPa 0,0 l/m 1,00 h 0,00 h 847 W/m 18,0 km/h (3 Bft) 92,87 %
06.06.2016 16:00 26,5 C 29,7 C 29,7 C 67 % 0 lf 1019,0 hPa 0,0 l/m 0,47 h 0,00 h 423 W/m 13,6 km/h (3 Bft) 97,51 %
06.06.2016 17:00 24,9 C 26,9 C 25,9 C 75 % 2 lf 1018,7 hPa 0,0 l/m 0,57 h 0,27 h 307 W/m 7,8 km/h (2 Bft) 97,29 %
06.06.2016 18:00 25,2 C 26,4 C 24,7 C 71 % 0 lf 1018,9 hPa 0,0 l/m 0,00 h 0,00 h 156 W/m 10,6 km/h (2 Bft) 95,42 %
06.06.2016 19:00 24,6 C 24,9 C 23,1 C 72 % 0 lf 1018,9 hPa 0,0 l/m 0,00 h 0,00 h 75 W/m 9,2 km/h (2 Bft) 95,20 %
06.06.2016 20:00 24,1 C 23,6 C 21,8 C 74 % 0 lf 1019,1 hPa 0,0 l/m 0,00 h 0,00 h 41 W/m 8,0 km/h (2 Bft) 97,92 %
06.06.2016 21:00 23,2 C 21,9 C 19,9 C 77 % 0 lf 1019,2 hPa 0,0 l/m 0,00 h 0,00 h 12 W/m 6,5 km/h (2 Bft) 96,07 %
06.06.2016 22:00 21,7 C 19,4 C 17,7 C 82 % 0 lf 1019,5 hPa 0,0 l/m 0,00 h 0,00 h 4 W/m 0,8 km/h (0 Bft) 94,77 %
06.06.2016 23:00 20,4 C 18,4 C 16,9 C 87 % 0 lf 1019,5 hPa 0,0 l/m 0,00 h 0,00 h 0 W/m 0,0 km/h (0 Bft) 96,09 %
07.06.2016 00:00 19,3 C 17,4 C 16,3 C 89 % 1 lf 1019,6 hPa 0,0 l/m 0,00 h 0,00 h 0 W/m 0,0 km/h (0 Bft) 98,78 %
07.06.2016 01:00 18,6 C 17,2 C 16,1 C 91 % 1 lf 1019,6 hPa 0,0 l/m 0,00 h 0,00 h 0 W/m 0,2 km/h (0 Bft) 95,02 %
07.06.2016 02:00 18,1 C 16,8 C 15,9 C 92 % 0 lf 1019,6 hPa 0,0 l/m 0,00 h 0,00 h 0 W/m 0,7 km/h (0 Bft) 95,66 %
07.06.2016 03:00 17,6 C 16,3 C 15,3 C 93 % 1 lf 1019,5 hPa 0,0 l/m 0,00 h 0,00 h 0 W/m 0,0 km/h (0 Bft) 97,72 %
07.06.2016 04:00 17,1 C 15,8 C 14,9 C 93 % 4 lf 1019,5 hPa 0,0 l/m 0,00 h 0,00 h 0 W/m 0,0 km/h (0 Bft) 97,20 %
07.06.2016 05:00 16,6 C 15,6 C 14,5 C 94 % 12 lf 1019,6 hPa 0,0 l/m 0,03 h 0,00 h 13 W/m 0,0 km/h (0 Bft) 94,37 %
07.06.2016 06:00 16,6 C 16,6 C 15,5 C 95 % 6 lf 1019,8 hPa 0,0 l/m 0,70 h 0,00 h 84 W/m 2,4 km/h (1 Bft) 97,64 %
07.06.2016 07:00 17,6 C 18,8 C 16,9 C 97 % 0 lf 1020,0 hPa 0,0 l/m 0,90 h 0,00 h 195 W/m 5,9 km/h (2 Bft) 95,87 %
07.06.2016 08:00 19,2 C 24,8 C 19,0 C 95 % 0 lf 1020,4 hPa 0,0 l/m 1,00 h 0,00 h 397 W/m 10,4 km/h (2 Bft) 96,58 %
07.06.2016 09:00 22,5 C 29,2 C 21,9 C 81 % 0 lf 1020,7 hPa 0,0 l/m 1,00 h 0,00 h 561 W/m 11,4 km/h (2 Bft) 96,16 %
07.06.2016 10:00 24,6 C 32,2 C 31,1 C 72 % 0 lf 1020,6 hPa 0,0 l/m 1,00 h 0,00 h 713 W/m 13,3 km/h (3 Bft) 96,23 %
07.06.2016 11:00 25,7 C 34,0 C 31,4 C 68 % 0 lf 1020,5 hPa 0,0 l/m 1,00 h 0,00 h 743 W/m 9,9 km/h (2 Bft) 97,08 %
07.06.2016 12:00 26,8 C 35,1 C 33,4 C 63 % 0 lf 1020,3 hPa 0,0 l/m 0,93 h 0,00 h 830 W/m 11,0 km/h (2 Bft) 96,94 %
07.06.2016 13:00 27,7 C 37,0 C 29,1 C 57 % 0 lf 1020,0 hPa 0,0 l/m 1,00 h 0,00 h 888 W/m 12,6 km/h (3 Bft) 93,73 %
07.06.2016 14:00 28,5 C 37,0 C 34,6 C 53 % 0 lf 1019,6 hPa 0,0 l/m 1,00 h 0,00 h 876 W/m 10,0 km/h (2 Bft) 98,36 %
07.06.2016 15:00 27,6 C 31,2 C 31,8 C 54 % 0 lf 1019,3 hPa 0,0 l/m 0,43 h 0,00 h 515 W/m 20,6 km/h (4 Bft) 98,13 %
07.06.2016 16:00 22,6 C 19,9 C 18,7 C 71 % 11 lf 1020,1 hPa 8,8 l/m 0,00 h 0,70 h 57 W/m 27,8 km/h (4 Bft) 92,31 %
07.06.2016 17:00 18,0 C 16,7 C 16,2 C 91 % 15 lf 1019,8 hPa 0,8 l/m 0,00 h 0,90 h 31 W/m 16,0 km/h (3 Bft) 98,06 %
07.06.2016 18:00 17,9 C 17,1 C 16,6 C 94 % 15 lf 1020,2 hPa 0,4 l/m 0,00 h 0,70 h 19 W/m 7,1 km/h (2 Bft) 98,09 %
07.06.2016 19:00 17,9 C 17,2 C 16,7 C 95 % 15 lf 1021,2 hPa 0,8 l/m 0,00 h 0,90 h 35 W/m 6,9 km/h (2 Bft) 94,90 %
07.06.2016 20:00 18,0 C 17,7 C 17,0 C 96 % 15 lf 1021,1 hPa 0,0 l/m 0,00 h 0,10 h 46 W/m 8,2 km/h (2 Bft) 95,72 %
07.06.2016 21:00 18,1 C 17,2 C 16,6 C 96 % 15 lf 1020,1 hPa 0,0 l/m 0,00 h 0,27 h 11 W/m 5,3 km/h (1 Bft) 97,58 %
07.06.2016 22:00 17,6 C 16,5 C 15,8 C 96 % 15 lf 1020,5 hPa 0,0 l/m 0,00 h 0,00 h 0 W/m 2,4 km/h (1 Bft) 95,14 %
07.06.2016 23:00 17,0 C 15,7 C 15,0 C 96 % 15 lf 1020,5 hPa 0,0 l/m 0,00 h 0,00 h 0 W/m 1,3 km/h (1 Bft) 97,42 %
08.06.2016 00:00 16,5 C 15,2 C 14,5 C 96 % 15 lf 1020,8 hPa 0,0 l/m 0,00 h 0,00 h 0 W/m 4,5 km/h (1 Bft) 90,62 %
08.06.2016 01:00 16,0 C 14,7 C 14,0 C 96 % 15 lf 1020,7 hPa 0,0 l/m 0,00 h 0,00 h 0 W/m 0,2 km/h (0 Bft) 96,57 %
08.06.2016 02:00 15,6 C 14,5 C 13,9 C 97 % 15 lf 1020,3 hPa 0,0 l/m 0,00 h 0,00 h 0 W/m 0,0 km/h (0 Bft) 97,95 %
08.06.2016 03:00 15,3 C 14,5 C 13,9 C 97 % 15 lf 1019,9 hPa 0,0 l/m 0,00 h 0,00 h 0 W/m 0,0 km/h (0 Bft) 95,08 %
08.06.2016 04:00 15,3 C 14,5 C 13,6 C 97 % 15 lf 1019,9 hPa 0,0 l/m 0,00 h 0,00 h 0 W/m 0,0 km/h (0 Bft) 95,65 %
08.06.2016 05:00 15,1 C 14,7 C 13,9 C 97 % 15 lf 1019,8 hPa 0,0 l/m 0,43 h 0,00 h 22 W/m 0,1 km/h (0 Bft) 98,86 %
08.06.2016 06:00 15,4 C 15,8 C 15,0 C 98 % 15 lf 1019,9 hPa 0,0 l/m 0,80 h 0,00 h 81 W/m 2,1 km/h (1 Bft) 94,52 %
08.06.2016 07:00 16,2 C 16,6 C 15,6 C 98 % 15 lf 1020,1 hPa 0,0 l/m 0,00 h 0,00 h 86 W/m 7,4 km/h (2 Bft) 96,16 %
08.06.2016 08:00 16,8 C 19,5 C 17,1 C 99 % 9 lf 1020,2 hPa 0,2 l/m 0,73 h 0,00 h 348 W/m 9,5 km/h (2 Bft) 97,65 %
08.06.2016 09:00 18,1 C 26,9 C 18,6 C 98 % 0 lf 1020,2 hPa 0,0 l/m 1,00 h 0,00 h 570 W/m 11,7 km/h (2 Bft) 95,84 %
08.06.2016 10:00 20,6 C 32,5 C 27,2 C 80 % 0 lf 1020,3 hPa 0,0 l/m 1,00 h 0,00 h 717 W/m 12,5 km/h (3 Bft) 96,44 %
08.06.2016 11:00 22,4 C 32,7 C 27,3 C 71 % 0 lf 1020,2 hPa 0,0 l/m 1,00 h 0,00 h 820 W/m 14,7 km/h (3 Bft) 96,80 %
08.06.2016 12:00 23,4 C 31,8 C 27,8 C 70 % 0 lf 1019,9 hPa 0,0 l/m 0,97 h 0,00 h 707 W/m 15,1 km/h (3 Bft) 94,86 %
08.06.2016 13:00 23,6 C 31,0 C 25,5 C 70 % 0 lf 1019,6 hPa 0,0 l/m 0,83 h 0,00 h 717 W/m 16,9 km/h (3 Bft) 97,36 %
08.06.2016 14:00 24,0 C 30,8 C 28,0 C 67 % 0 lf 1019,3 hPa 0,0 l/m 0,97 h 0,00 h 763 W/m 20,6 km/h (4 Bft) 94,02 %
08.06.2016 15:00 23,9 C 30,2 C 30,8 C 67 % 0 lf 1019,1 hPa 0,0 l/m 0,97 h 0,00 h 812 W/m 22,8 km/h (4 Bft) 97,79 %
08.06.2016 16:00 24,2 C 29,4 C 31,5 C 67 % 0 lf 1019,0 hPa 0,0 l/m 0,97 h 0,00 h 696 W/m 21,4 km/h (4 Bft) 95,30 %
08.06.2016 17:00 23,9 C 26,9 C 26,9 C 60 % 0 lf 1018,8 hPa 0,0 l/m 1,00 h 0,00 h 658 W/m 24,8 km/h (4 Bft) 95,30 %
08.06.2016 18:00 23,0 C 23,9 C 21,6 C 61 % 0 lf 1018,5 hPa 0,0 l/m 0,83 h 0,00 h 390 W/m 21,4 km/h (4 Bft) 96,79 %
08.06.2016 19:00 21,8 C 21,6 C 19,8 C 64 % 0 lf 1018,6 hPa 0,0 l/m 0,60 h 0,00 h 155 W/m 21,3 km/h (4 Bft) 95,94 %
08.06.2016 20:00 20,3 C 19,9 C 18,4 C 70 % 0 lf 1018,9 hPa 0,0 l/m 0,93 h 0,00 h 94 W/m 19,3 km/h (3 Bft) 95,69 %
08.06.2016 21:00 18,6 C 17,7 C 16,4 C 79 % 0 lf 1019,4 hPa 0,0 l/m 0,43 h 0,00 h 21 W/m 21,0 km/h (4 Bft) 97,52 %
08.06.2016 22:00 16,5 C 15,6 C 14,4 C 84 % 0 lf 1019,8 hPa 0,0 l/m 0,00 h 0,00 h 0 W/m 17,4 km/h (3 Bft) 93,95 %
08.06.2016 23:00 15,2 C 13,9 C 13,0 C 86 % 0 lf 1019,9 hPa 0,0 l/m 0,00 h 0,00 h 2 W/m 9,2 km/h (2 Bft) 98,51 %
09.06.2016 00:00 14,3 C 12,9 C 12,0 C 88 % 0 lf 1020,0 hPa 0,0 l/m 0,00 h 0,00 h 0 W/m 5,4 km/h (1 Bft) 92,49 %
09.06.2016 01:00 13,6 C 12,8 C 12,0 C 90 % 0 lf 1020,0 hPa 0,0 l/m 0,00 h 0,00 h 3 W/m 8,5 km/h (2 Bft) 94,82 %
09.06.2016 02:00 13,2 C 12,5 C 11,7 C 92 % 0 lf 1019,8 hPa 0,0 l/m 0,00 h 0,00 h 3 W/m 8,1 km/h (2 Bft) 97,45 %
09.06.2016 03:00 13,0 C 12,2 C 11,7 C 93 % 0 lf 1019,9 hPa 0,0 l/m 0,00 h 0,00 h 4 W/m 8,0 km/h (2 Bft) 97,36 %
09.06.2016 04:00 12,7 C 12,4 C 11,7 C 93 % 0 lf 1020,0 hPa 0,0 l/m 0,00 h 0,00 h 0 W/m 9,6 km/h (2 Bft) 94,20 %
09.06.2016 05:00 12,5 C 12,2 C 11,6 C 93 % 0 lf 1019,9 hPa 0,0 l/m 0,00 h 0,00 h 9 W/m 9,9 km/h (2 Bft) 97,37 %
09.06.2016 06:00 12,2 C 12,4 C 11,4 C 93 % 0 lf 1020,2 hPa 0,0 l/m 0,03 h 0,00 h 46 W/m 10,2 km/h (2 Bft) 96,28 %
09.06.2016 07:00 12,0 C 12,9 C 11,6 C 91 % 0 lf 1020,0 hPa 0,0 l/m 0,67 h 0,00 h 170 W/m 13,5 km/h (3 Bft) 96,45 %
09.06.2016 08:00 12,9 C 18,0 C 13,2 C 85 % 0 lf 1020,0 hPa 0,0 l/m 0,97 h 0,00 h 438 W/m 14,8 km/h (3 Bft) 95,72 %
09.06.2016 09:00 14,8 C 21,7 C 15,4 C 79 % 0 lf 1019,8 hPa 0,0 l/m 0,87 h 0,00 h 523 W/m 13,5 km/h (3 Bft) 95,72 %
09.06.2016 10:00 15,9 C 25,0 C 21,5 C 74 % 0 lf 1019,7 hPa 0,0 l/m 0,80 h 0,00 h 657 W/m 12,3 km/h (3 Bft) 96,17 %
09.06.2016 11:00 17,5 C 28,0 C 23,9 C 69 % 0 lf 1019,4 hPa 0,0 l/m 1,00 h 0,00 h 859 W/m 15,9 km/h (3 Bft) 97,79 %
09.06.2016 12:00 18,8 C 29,1 C 25,7 C 65 % 0 lf 1019,3 hPa 0,0 l/m 0,97 h 0,00 h 875 W/m 14,0 km/h (3 Bft) 93,39 %
09.06.2016 13:00 20,0 C 29,8 C 22,2 C 62 % 0 lf 1019,0 hPa 0,0 l/m 1,00 h 0,00 h 950 W/m 15,3 km/h (3 Bft) 97,86 %
09.06.2016 14:00 20,3 C 28,7 C 26,3 C 57 % 0 lf 1018,7 hPa 0,0 l/m 0,97 h 0,00 h 916 W/m 16,0 km/h (3 Bft) 96,58 %
09.06.2016 15:00 20,8 C 28,2 C 29,8 C 56 % 0 lf 1018,3 hPa 0,0 l/m 0,93 h 0,00 h 833 W/m 18,2 km/h (3 Bft) 93,81 %
09.06.2016 16:00 21,0 C 26,7 C 28,7 C 52 % 0 lf 1017,8 hPa 0,0 l/m 1,00 h 0,00 h 710 W/m 17,3 km/h (3 Bft) 97,08 %
09.06.2016 17:00 21,1 C 24,8 C 23,8 C 52 % 0 lf 1017,3 hPa 0,0 l/m 1,00 h 0,00 h 572 W/m 14,2 km/h (3 Bft) 96,00 %
09.06.2016 18:00 20,8 C 21,6 C 18,9 C 53 % 0 lf 1016,9 hPa 0,0 l/m 1,00 h 0,00 h 418 W/m 11,1 km/h (2 Bft) 96,28 %
09.06.2016 19:00 20,4 C 20,7 C 18,3 C 54 % 0 lf 1016,8 hPa 0,0 l/m 1,00 h 0,00 h 254 W/m 9,9 km/h (2 Bft) 96,23 %
09.06.2016 20:00 20,0 C 19,5 C 17,2 C 56 % 0 lf 1016,2 hPa 0,0 l/m 0,93 h 0,00 h 102 W/m 8,3 km/h (2 Bft) 96,95 %
09.06.2016 21:00 18,9 C 17,5 C 15,6 C 57 % 0 lf 1016,1 hPa 0,0 l/m 0,23 h 0,00 h 20 W/m 9,7 km/h (2 Bft) 95,26 %
09.06.2016 22:00 17,2 C 15,0 C 13,3 C 61 % 0 lf 1016,3 hPa 0,0 l/m 0,00 h 0,00 h 4 W/m 6,1 km/h (2 Bft) 96,85 %
09.06.2016 23:00 15,4 C 13,0 C 11,5 C 67 % 0 lf 1016,4 hPa 0,0 l/m 0,00 h 0,00 h 0 W/m 4,6 km/h (1 Bft) 96,31 %
10.06.2016 00:00 14,0 C 12,4 C 11,2 C 71 % 0 lf 1016,5 hPa 0,0 l/m 0,00 h 0,00 h 0 W/m 7,7 km/h (2 Bft) 96,33 %
10.06.2016 01:00 13,1 C 11,1 C 10,0 C 74 % 0 lf 1016,2 hPa 0,0 l/m 0,00 h 0,00 h 0 W/m 3,2 km/h (1 Bft) 95,07 %
10.06.2016 02:00 11,9 C 9,8 C 9,3 C 77 % 0 lf 1015,9 hPa 0,0 l/m 0,00 h 0,00 h 0 W/m 2,2 km/h (1 Bft) 95,61 %
10.06.2016 03:00 10,9 C 9,4 C 9,1 C 80 % 0 lf 1015,4 hPa 0,0 l/m 0,00 h 0,00 h 0 W/m 1,7 km/h (1 Bft) 97,45 %
10.06.2016 04:00 10,6 C 10,4 C 9,8 C 83 % 0 lf 1015,0 hPa 0,0 l/m 0,00 h 0,00 h 0 W/m 5,0 km/h (1 Bft) 97,19 %
10.06.2016 05:00 10,9 C 10,3 C 9,5 C 86 % 0 lf 1014,9 hPa 0,0 l/m 0,03 h 0,00 h 11 W/m 3,6 km/h (1 Bft) 94,85 %
10.06.2016 06:00 10,7 C 9,9 C 9,4 C 87 % 0 lf 1014,8 hPa 0,0 l/m 0,00 h 0,00 h 38 W/m 2,7 km/h (1 Bft) 94,68 %
10.06.2016 07:00 11,3 C 13,4 C 12,3 C 90 % 0 lf 1014,6 hPa 0,0 l/m 0,27 h 0,00 h 134 W/m 3,4 km/h (1 Bft) 98,79 %
10.06.2016 08:00 12,7 C 16,5 C 14,2 C 89 % 0 lf 1014,7 hPa 0,0 l/m 1,00 h 0,00 h 254 W/m 8,7 km/h (2 Bft) 94,51 %
10.06.2016 09:00 14,6 C 24,9 C 15,4 C 81 % 0 lf 1014,6 hPa 0,0 l/m 1,00 h 0,00 h 566 W/m 9,4 km/h (2 Bft) 97,15 %
10.06.2016 10:00 17,3 C 29,5 C 25,0 C 63 % 0 lf 1014,5 hPa 0,0 l/m 1,00 h 0,00 h 770 W/m 9,8 km/h (2 Bft) 96,49 %
10.06.2016 11:00 19,2 C 30,3 C 25,6 C 53 % 0 lf 1014,3 hPa 0,0 l/m 1,00 h 0,00 h 837 W/m 10,1 km/h (2 Bft) 95,08 %
10.06.2016 12:00 19,9 C 29,7 C 25,9 C 50 % 0 lf 1014,0 hPa 0,0 l/m 0,97 h 0,00 h 742 W/m 10,8 km/h (2 Bft) 96,31 %
10.06.2016 13:00 21,2 C 31,1 C 22,8 C 52 % 0 lf 1013,5 hPa 0,0 l/m 1,00 h 0,00 h 889 W/m 10,6 km/h (2 Bft) 96,32 %
10.06.2016 14:00 22,0 C 31,3 C 28,3 C 49 % 0 lf 1013,0 hPa 0,0 l/m 1,00 h 0,00 h 905 W/m 12,7 km/h (3 Bft) 96,16 %
10.06.2016 15:00 22,2 C 29,2 C 30,1 C 53 % 0 lf 1012,5 hPa 0,0 l/m 1,00 h 0,00 h 740 W/m 11,2 km/h (2 Bft) 95,63 %
10.06.2016 16:00 22,4 C 28,0 C 29,3 C 54 % 0 lf 1012,2 hPa 0,0 l/m 1,00 h 0,00 h 636 W/m 13,2 km/h (3 Bft) 95,68 %
10.06.2016 17:00 22,4 C 25,8 C 25,0 C 55 % 0 lf 1011,8 hPa 0,0 l/m 1,00 h 0,00 h 527 W/m 13,4 km/h (3 Bft) 97,99 %
10.06.2016 18:00 21,7 C 23,1 C 21,2 C 57 % 0 lf 1011,4 hPa 0,0 l/m 1,00 h 0,00 h 293 W/m 14,4 km/h (3 Bft) 95,27 %
10.06.2016 19:00 21,2 C 21,7 C 19,9 C 58 % 0 lf 1011,1 hPa 0,0 l/m 1,00 h 0,00 h 216 W/m 12,4 km/h (3 Bft) 95,22 %
10.06.2016 20:00 20,7 C 20,6 C 18,7 C 61 % 0 lf 1010,8 hPa 0,0 l/m 0,47 h 0,00 h 82 W/m 7,9 km/h (2 Bft) 98,08 %
10.06.2016 21:00 20,0 C 18,6 C 16,7 C 65 % 0 lf 1010,7 hPa 0,0 l/m 0,00 h 0,00 h 18 W/m 4,9 km/h (1 Bft) 94,09 %
10.06.2016 22:00 18,9 C 17,6 C 16,1 C 70 % 0 lf 1010,8 hPa 0,0 l/m 0,00 h 0,00 h 0 W/m 1,5 km/h (1 Bft) 96,43 %
10.06.2016 23:00 18,2 C 16,7 C 15,4 C 76 % 0 lf 1010,9 hPa 0,0 l/m 0,00 h 0,00 h 5 W/m 1,5 km/h (1 Bft) 97,22 %
11.06.2016 00:00 17,3 C 15,9 C 14,5 C 78 % 0 lf 1010,7 hPa 0,0 l/m 0,00 h 0,00 h 0 W/m 1,4 km/h (1 Bft) 94,39 %
11.06.2016 01:00 16,7 C 16,0 C 14,8 C 80 % 0 lf 1010,6 hPa 0,0 l/m 0,00 h 0,00 h 0 W/m 3,2 km/h (1 Bft) 97,76 %
11.06.2016 02:00 16,5 C 16,1 C 14,8 C 81 % 0 lf 1010,4 hPa 0,0 l/m 0,00 h 0,00 h 0 W/m 5,8 km/h (2 Bft) 96,04 %
11.06.2016 03:00 16,2 C 16,1 C 14,4 C 81 % 0 lf 1010,0 hPa 0,0 l/m 0,00 h 0,00 h 0 W/m 10,1 km/h (2 Bft) 94,57 %
11.06.2016 04:00 16,0 C 15,7 C 14,3 C 79 % 0 lf 1009,9 hPa 0,0 l/m 0,00 h 0,00 h 0 W/m 7,2 km/h (2 Bft) 98,44 %
11.06.2016 05:00 15,8 C 15,5 C 14,0 C 80 % 1 lf 1009,8 hPa 0,0 l/m 0,00 h 0,23 h 13 W/m 7,2 km/h (2 Bft) 96,42 %
11.06.2016 06:00 15,5 C 15,5 C 14,1 C 81 % 0 lf 1009,9 hPa 0,0 l/m 0,00 h 0,00 h 38 W/m 8,8 km/h (2 Bft) 93,87 %
11.06.2016 07:00 15,7 C 17,2 C 15,7 C 81 % 0 lf 1010,0 hPa 0,0 l/m 0,00 h 0,00 h 124 W/m 12,1 km/h (2 Bft) 98,01 %
11.06.2016 08:00 16,6 C 18,4 C 17,3 C 78 % 0 lf 1010,2 hPa 0,0 l/m 0,07 h 0,00 h 192 W/m 11,9 km/h (2 Bft) 96,46 %
11.06.2016 09:00 18,0 C 23,2 C 19,6 C 76 % 0 lf 1010,4 hPa 0,0 l/m 1,00 h 0,00 h 409 W/m 14,6 km/h (3 Bft) 93,97 %
11.06.2016 10:00 19,5 C 26,4 C 23,4 C 72 % 0 lf 1010,4 hPa 0,0 l/m 1,00 h 0,00 h 548 W/m 13,9 km/h (3 Bft) 97,84 %
11.06.2016 11:00 21,1 C 28,0 C 24,6 C 68 % 0 lf 1010,3 hPa 0,0 l/m 1,00 h 0,00 h 609 W/m 16,0 km/h (3 Bft) 96,16 %
11.06.2016 12:00 21,2 C 27,9 C 24,4 C 66 % 0 lf 1010,3 hPa 0,0 l/m 1,00 h 0,00 h 638 W/m 16,2 km/h (3 Bft) 95,33 %
11.06.2016 13:00 22,2 C 27,4 C 24,5 C 63 % 0 lf 1010,1 hPa 0,0 l/m 1,00 h 0,00 h 544 W/m 14,8 km/h (3 Bft) 95,96 %
11.06.2016 14:00 23,0 C 28,2 C 26,0 C 61 % 0 lf 1009,8 hPa 0,0 l/m 1,00 h 0,00 h 603 W/m 11,7 km/h (2 Bft) 97,45 %
11.06.2016 15:00 23,0 C 28,7 C 27,4 C 62 % 0 lf 1009,5 hPa 0,0 l/m 1,00 h 0,00 h 692 W/m 16,6 km/h (3 Bft) 96,00 %
11.06.2016 16:00 23,0 C 26,8 C 25,6 C 62 % 0 lf 1009,3 hPa 0,0 l/m 0,87 h 0,00 h 439 W/m 13,6 km/h (3 Bft) 95,29 %
11.06.2016 17:00 22,8 C 25,8 C 24,0 C 62 % 0 lf 1009,0 hPa 0,0 l/m 0,87 h 0,00 h 388 W/m 10,7 km/h (2 Bft) 97,44 %
11.06.2016 18:00 22,1 C 21,9 C 20,2 C 69 % 6 lf 1009,0 hPa 0,2 l/m 0,47 h 0,43 h 213 W/m 16,4 km/h (3 Bft) 97,04 %
11.06.2016 19:00 20,2 C 19,9 C 18,2 C 77 % 3 lf 1008,9 hPa 0,0 l/m 0,00 h 0,10 h 84 W/m 9,3 km/h (2 Bft) 92,37 %
11.06.2016 20:00 19,9 C 20,2 C 18,8 C 76 % 0 lf 1008,8 hPa 0,0 l/m 0,00 h 0,00 h 54 W/m 7,3 km/h (2 Bft) 98,86 %
11.06.2016 21:00 19,8 C 19,0 C 17,4 C 75 % 0 lf 1009,0 hPa 0,0 l/m 0,00 h 0,00 h 12 W/m 7,8 km/h (2 Bft) 96,47 %
11.06.2016 22:00 18,9 C 17,7 C 16,3 C 77 % 0 lf 1009,3 hPa 0,0 l/m 0,00 h 0,00 h 0 W/m 3,4 km/h (1 Bft) 94,68 %
11.06.2016 23:00 18,1 C 16,6 C 15,3 C 80 % 0 lf 1009,3 hPa 0,0 l/m 0,00 h 0,00 h 0 W/m 0,7 km/h (0 Bft) 96,55 %
12.06.2016 00:00 17,5 C 16,6 C 15,5 C 83 % 0 lf 1009,2 hPa 0,0 l/m 0,00 h 0,00 h 0 W/m 2,4 km/h (1 Bft) 96,16 %
12.06.2016 01:00 17,3 C 16,5 C 15,3 C 84 % 0 lf 1009,0 hPa 0,0 l/m 0,00 h 0,00 h 0 W/m 0,1 km/h (0 Bft) 95,69 %
12.06.2016 02:00 16,8 C 15,6 C 14,4 C 86 % 0 lf 1008,7 hPa 0,0 l/m 0,00 h 0,00 h 0 W/m 0,6 km/h (0 Bft) 96,93 %
12.06.2016 03:00 16,3 C 15,4 C 14,2 C 88 % 0 lf 1008,5 hPa 0,0 l/m 0,00 h 0,00 h 0 W/m 0,7 km/h (0 Bft) 95,17 %
12.06.2016 04:00 15,9 C 15,0 C 14,1 C 90 % 1 lf 1008,2 hPa 0,0 l/m 0,00 h 0,00 h 0 W/m 2,2 km/h (1 Bft) 97,29 %
12.06.2016 05:00 15,6 C 15,0 C 14,4 C 92 % 3 lf 1008,3 hPa 0,0 l/m 0,00 h 0,30 h 8 W/m 2,1 km/h (1 Bft) 97,78 %
12.06.2016 06:00 15,6 C 15,4 C 14,3 C 92 % 15 lf 1008,4 hPa 0,0 l/m 0,00 h 0,47 h 40 W/m 2,3 km/h (1 Bft) 93,48 %
12.06.2016 07:00 15,8 C 16,4 C 15,1 C 93 % 1 lf 1008,6 hPa 0,0 l/m 0,00 h 0,03 h 62 W/m 4,4 km/h (1 Bft) 93,90 %
12.06.2016 08:00 16,4 C 17,1 C 15,7 C 92 % 10 lf 1008,8 hPa 0,0 l/m 0,00 h 0,70 h 92 W/m 5,5 km/h (1 Bft) 98,65 %
12.06.2016 09:00 17,3 C 19,0 C 16,7 C 93 % 13 lf 1008,8 hPa 0,0 l/m 0,10 h 0,73 h 197 W/m 7,1 km/h (2 Bft) 94,52 %
12.06.2016 10:00 18,6 C 22,6 C 20,6 C 88 % 0 lf 1008,6 hPa 0,0 l/m 0,50 h 0,17 h 343 W/m 10,0 km/h (2 Bft) 95,94 %
12.06.2016 11:00 20,5 C 26,3 C 24,3 C 79 % 0 lf 1008,5 hPa 0,0 l/m 0,73 h 0,00 h 487 W/m 9,4 km/h (2 Bft) 97,51 %
12.06.2016 12:00 21,9 C 28,8 C 26,9 C 71 % 0 lf 1008,1 hPa 0,0 l/m 0,67 h 0,00 h 618 W/m 12,8 km/h (3 Bft) 96,45 %
12.06.2016 13:00 22,9 C 28,3 C 25,8 C 66 % 0 lf 1007,6 hPa 0,0 l/m 0,53 h 0,00 h 594 W/m 13,6 km/h (3 Bft) 93,95 %
12.06.2016 14:00 19,9 C 17,6 C 16,7 C 79 % 13 lf 1007,7 hPa 2,6 l/m 0,00 h 0,87 h 73 W/m 12,2 km/h (2 Bft) 97,60 %
12.06.2016 15:00 17,0 C 15,7 C 15,2 C 89 % 15 lf 1007,8 hPa 1,2 l/m 0,00 h 0,70 h 82 W/m 6,6 km/h (2 Bft) 96,37 %
12.06.2016 16:00 16,2 C 15,3 C 15,1 C 92 % 15 lf 1007,9 hPa 2,2 l/m 0,00 h 0,93 h 129 W/m 9,0 km/h (2 Bft) 96,61 %
12.06.2016 17:00 16,3 C 17,0 C 17,6 C 93 % 9 lf 1007,3 hPa 0,0 l/m 0,50 h 0,00 h 307 W/m 4,1 km/h (1 Bft) 93,55 %
12.06.2016 18:00 17,2 C 17,0 C 17,2 C 91 % 2 lf 1007,0 hPa 0,0 l/m 0,00 h 0,23 h 141 W/m 8,6 km/h (2 Bft) 97,29 %
12.06.2016 19:00 16,8 C 15,7 C 15,1 C 92 % 11 lf 1006,6 hPa 1,8 l/m 0,00 h 0,80 h 32 W/m 11,0 km/h (2 Bft) 96,58 %
12.06.2016 20:00 16,0 C 15,0 C 14,4 C 94 % 15 lf 1006,0 hPa 0,4 l/m 0,00 h 0,47 h 25 W/m 4,9 km/h (1 Bft) 95,45 %
12.06.2016 21:00 15,8 C 15,1 C 14,4 C 95 % 15 lf 1005,8 hPa 0,0 l/m 0,00 h 0,00 h 11 W/m 2,8 km/h (1 Bft) 95,36 %
12.06.2016 22:00 15,7 C 15,0 C 14,4 C 96 % 15 lf 1005,9 hPa 0,8 l/m 0,00 h 0,50 h 4 W/m 2,7 km/h (1 Bft) 97,15 %
12.06.2016 23:00 15,6 C 15,0 C 14,4 C 96 % 15 lf 1005,4 hPa 0,2 l/m 0,00 h 0,20 h 4 W/m 3,4 km/h (1 Bft) 96,23 %
Min-Datum _ 10.06.16 10.06.16 10.06.16 10.06.16 06.06.16 12.06.16 - - - - 06.06.16 08.06.16
_ Min-Zeit 04:14 03:06 02:46 14:06 08:16 23:42 - - - - 00:26 00:02
Minimum _ 10,5 C 8,9 C 8,9 C 46 % 0 lf 1005,1 hPa - - - - 0,0 km/h (0 Bft) 11,11 %
Max-Datum _ 07.06.16 07.06.16 07.06.16 08.06.16 06.06.16 07.06.16 07.06.16 06.06.16 06.06.16 12.06.16 07.06.16 06.06.16
_ Max-Zeit 14:24 14:10 14:50 08:10 00:00 20:06 16:48 05:44 00:00 13:48 15:38 00:00
Maximum _ 29,1 C 39,4 C 37,8 C 99 % 15 lf 1021,5 hPa 8,8 l/m 0,03 h 0,03 h 1195 W/m 43,9 km/h
O-NO (6 Bft)
100,00 %
Durchschnitt _ 18,7 C 20,9 C 19,0 C 79 % 3 lf 1015,5 hPa #20,6 l/m #71:42 h #11:46 h 357 W/m 9,1 km/h (2 Bft) 96,15 %
© 2016 W. Hausmann